createdAt,value
2022-10-22T00:01:04.046Z,13.40
2022-10-22T00:03:32.313Z,13.40
2022-10-22T00:06:00.343Z,13.30
2022-10-22T00:08:28.629Z,13.30
2022-10-22T00:10:56.902Z,13.30
2022-10-22T00:13:24.969Z,13.20
2022-10-22T00:15:54.296Z,13.20
2022-10-22T00:18:22.748Z,13.10
2022-10-22T00:20:50.706Z,13.00
2022-10-22T00:23:18.645Z,13.10
2022-10-22T00:25:46.695Z,13.00
2022-10-22T00:28:15.229Z,13.00
2022-10-22T00:30:43.240Z,13.10
2022-10-22T00:33:12.567Z,13.10
2022-10-22T00:35:40.581Z,13.10
2022-10-22T00:38:08.666Z,13.10
2022-10-22T00:40:36.657Z,13.00
2022-10-22T00:43:04.655Z,13.00
2022-10-22T00:45:32.712Z,13.00
2022-10-22T00:48:04.589Z,12.90
2022-10-22T00:50:38.800Z,12.90
2022-10-22T00:53:11.822Z,13.00
2022-10-22T00:55:41.134Z,12.90
2022-10-22T00:58:09.421Z,12.90
2022-10-22T01:00:37.972Z,13.00
2022-10-22T01:03:06.461Z,13.10
2022-10-22T01:05:43.808Z,13.10
2022-10-22T01:08:20.871Z,13.10
2022-10-22T01:10:56.249Z,13.00
2022-10-22T01:13:37.907Z,13.00
2022-10-22T01:16:12.521Z,13.00
2022-10-22T01:18:49.619Z,12.90
2022-10-22T01:21:27.710Z,12.90
2022-10-22T01:24:21.959Z,12.90
2022-10-22T01:27:01.682Z,12.90
2022-10-22T01:29:34.778Z,12.90
2022-10-22T01:32:07.985Z,12.90
2022-10-22T01:34:37.261Z,13.00
2022-10-22T01:37:05.631Z,12.90
2022-10-22T01:39:36.065Z,12.90
2022-10-22T01:42:04.099Z,12.90
2022-10-22T01:47:18.962Z,12.80
2022-10-22T01:50:15.578Z,12.80
2022-10-22T01:52:55.765Z,12.70
2022-10-22T01:55:31.325Z,12.70
2022-10-22T01:58:10.002Z,12.70
2022-10-22T02:00:45.513Z,12.70
2022-10-22T02:03:22.902Z,12.80
2022-10-22T02:05:56.447Z,12.80
2022-10-22T02:08:28.917Z,12.90
2022-10-22T02:10:58.543Z,12.80
2022-10-22T02:13:31.411Z,12.70
2022-10-22T02:16:02.426Z,12.70
2022-10-22T02:18:36.366Z,12.80
2022-10-22T02:23:41.367Z,12.80
2022-10-22T02:26:19.777Z,12.80
2022-10-22T02:28:55.048Z,12.70
2022-10-22T02:31:27.619Z,12.80
2022-10-22T02:33:59.019Z,12.80
2022-10-22T02:36:27.877Z,12.70
2022-10-22T02:38:56.744Z,12.70
2022-10-22T02:41:25.209Z,12.80
2022-10-22T02:43:55.938Z,12.70
2022-10-22T02:46:26.693Z,12.70
2022-10-22T02:48:54.709Z,12.70
2022-10-22T02:51:22.940Z,12.60
2022-10-22T02:53:50.901Z,12.60
2022-10-22T02:56:18.979Z,12.50
2022-10-22T02:58:46.973Z,12.50
2022-10-22T03:01:16.173Z,12.60
2022-10-22T03:03:45.740Z,12.60
2022-10-22T03:06:13.846Z,12.50
2022-10-22T03:08:42.298Z,12.60
2022-10-22T03:11:10.314Z,12.60
2022-10-22T03:13:38.312Z,12.60
2022-10-22T03:16:06.991Z,12.60
2022-10-22T03:18:35.116Z,12.50
2022-10-22T03:21:10.826Z,12.40
2022-10-22T03:23:39.886Z,12.30
2022-10-22T03:26:09.165Z,12.30
2022-10-22T03:28:38.069Z,12.40
2022-10-22T03:31:06.226Z,12.50
2022-10-22T03:33:34.253Z,12.50
2022-10-22T03:36:02.275Z,12.50
2022-10-22T03:38:32.174Z,12.50
2022-10-22T03:41:00.259Z,12.60
2022-10-22T03:43:28.422Z,12.60
2022-10-22T03:45:56.423Z,12.50
2022-10-22T03:48:24.695Z,12.50
2022-10-22T03:50:52.677Z,12.50
2022-10-22T03:53:20.615Z,12.40
2022-10-22T03:55:50.140Z,12.40
2022-10-22T03:58:18.213Z,12.30
2022-10-22T04:00:46.233Z,12.40
2022-10-22T04:03:14.290Z,12.40
2022-10-22T04:05:42.321Z,12.40
2022-10-22T04:08:10.611Z,12.30
2022-10-22T04:10:38.619Z,12.30
2022-10-22T04:13:07.943Z,12.40
2022-10-22T04:15:36.008Z,12.40
2022-10-22T04:18:04.069Z,12.50
2022-10-22T04:20:32.106Z,12.60
2022-10-22T04:23:00.042Z,12.50
2022-10-22T04:25:28.014Z,12.60
2022-10-22T04:27:55.998Z,12.60
2022-10-22T04:30:25.352Z,12.50
2022-10-22T04:32:53.346Z,12.50
2022-10-22T04:35:21.336Z,12.50
2022-10-22T04:37:49.362Z,12.50
2022-10-22T04:40:17.495Z,12.40
2022-10-22T04:42:45.534Z,12.50
2022-10-22T04:45:15.560Z,12.50
2022-10-22T04:47:44.931Z,12.40
2022-10-22T04:50:13.494Z,12.40
2022-10-22T04:52:41.465Z,12.30
2022-10-22T04:55:10.006Z,12.30
2022-10-22T04:57:38.124Z,12.30
2022-10-22T05:00:07.521Z,12.30
2022-10-22T05:02:35.589Z,12.30
2022-10-22T05:05:05.531Z,12.30
2022-10-22T05:07:33.531Z,12.30
2022-10-22T05:10:02.281Z,12.30
2022-10-22T05:12:30.883Z,12.30
2022-10-22T05:14:58.872Z,12.30
2022-10-22T05:17:27.224Z,12.30
2022-10-22T05:19:55.207Z,12.30
2022-10-22T05:22:24.559Z,12.20
2022-10-22T05:24:52.521Z,12.30
2022-10-22T05:27:20.548Z,12.30
2022-10-22T05:29:48.537Z,12.30
2022-10-22T05:32:16.530Z,12.30
2022-10-22T05:34:44.809Z,12.20
2022-10-22T05:37:12.823Z,12.20
2022-10-22T05:39:42.142Z,12.20
2022-10-22T05:42:10.118Z,12.20
2022-10-22T05:44:38.993Z,12.30
2022-10-22T05:47:07.002Z,12.30
2022-10-22T05:49:35.181Z,12.20
2022-10-22T05:52:03.149Z,12.30
2022-10-22T05:54:31.122Z,12.20
2022-10-22T05:57:00.534Z,12.30
2022-10-22T05:59:28.554Z,12.30
2022-10-22T06:01:56.596Z,12.30
2022-10-22T06:04:24.671Z,12.30
2022-10-22T06:06:54.169Z,12.20
2022-10-22T06:09:25.046Z,12.30
2022-10-22T06:11:53.410Z,12.30
2022-10-22T06:14:23.309Z,12.40
2022-10-22T06:16:51.866Z,12.40
2022-10-22T06:19:21.413Z,12.40
2022-10-22T06:21:49.976Z,12.40
2022-10-22T06:24:18.067Z,12.40
2022-10-22T06:26:46.054Z,12.50
2022-10-22T06:29:14.173Z,12.50
2022-10-22T06:31:43.542Z,12.50
2022-10-22T06:34:13.785Z,12.50
2022-10-22T06:36:42.690Z,12.60
2022-10-22T06:39:12.791Z,12.70
2022-10-22T06:41:40.822Z,12.70
2022-10-22T06:44:08.880Z,12.90
2022-10-22T06:46:39.049Z,12.90
2022-10-22T06:49:14.049Z,13.10
2022-10-22T06:51:42.304Z,13.40
2022-10-22T06:54:10.512Z,13.50
2022-10-22T06:56:38.527Z,13.60
2022-10-22T06:59:06.567Z,13.80
2022-10-22T07:01:36.877Z,13.80
2022-10-22T07:04:05.745Z,13.70
2022-10-22T07:06:35.107Z,13.70
2022-10-22T07:09:03.257Z,13.70
2022-10-22T07:11:38.634Z,13.80
2022-10-22T07:14:06.650Z,13.80
2022-10-22T07:16:34.612Z,13.80
2022-10-22T07:19:03.213Z,13.80
2022-10-22T07:21:32.138Z,13.80
2022-10-22T07:24:02.040Z,13.80
2022-10-22T07:26:32.584Z,13.80
2022-10-22T07:29:01.007Z,13.80
2022-10-22T07:31:29.678Z,13.90
2022-10-22T07:33:57.970Z,13.90
2022-10-22T07:36:26.224Z,13.90
2022-10-22T07:38:58.628Z,14.00
2022-10-22T07:41:28.738Z,14.00
2022-10-22T07:43:56.788Z,14.10
2022-10-22T07:46:25.470Z,14.30
2022-10-22T07:48:53.613Z,14.40
2022-10-22T07:51:21.634Z,14.40
2022-10-22T07:53:49.693Z,14.40
2022-10-22T07:56:17.664Z,14.40
2022-10-22T07:58:47.054Z,14.50
2022-10-22T08:01:15.658Z,14.50
2022-10-22T08:03:43.730Z,14.60
2022-10-22T08:06:13.733Z,14.70
2022-10-22T08:08:42.077Z,14.70
2022-10-22T08:11:11.513Z,14.80
2022-10-22T08:13:44.094Z,14.90
2022-10-22T08:16:15.342Z,15.00
2022-10-22T08:18:43.595Z,15.20
2022-10-22T08:21:12.315Z,15.30
2022-10-22T08:23:40.737Z,15.40
2022-10-22T08:26:09.060Z,15.50
2022-10-22T08:28:37.900Z,15.60
2022-10-22T08:31:07.338Z,15.60
2022-10-22T08:33:38.664Z,15.70
2022-10-22T08:36:07.806Z,15.90
2022-10-22T08:38:36.248Z,15.90
2022-10-22T08:41:11.190Z,16.10
2022-10-22T08:44:01.231Z,16.20
2022-10-22T08:46:47.953Z,16.20
2022-10-22T08:49:22.498Z,16.30
2022-10-22T08:51:51.453Z,16.30
2022-10-22T08:54:28.014Z,16.50
2022-10-22T08:57:20.148Z,16.50
2022-10-22T08:59:55.273Z,16.50
2022-10-22T09:02:36.322Z,16.50
2022-10-22T09:05:19.069Z,16.40
2022-10-22T09:07:50.179Z,16.30
2022-10-22T09:10:19.288Z,16.40
2022-10-22T09:12:48.979Z,16.30
2022-10-22T09:15:18.438Z,16.40
2022-10-22T09:17:59.750Z,16.40
2022-10-22T09:20:38.805Z,16.50
2022-10-22T09:23:27.634Z,16.50
2022-10-22T09:25:57.257Z,16.70
2022-10-22T09:28:25.382Z,16.80
2022-10-22T09:30:53.809Z,16.80
2022-10-22T09:33:26.088Z,16.90
2022-10-22T09:35:57.997Z,16.80
2022-10-22T09:38:29.347Z,16.80
2022-10-22T09:41:00.135Z,16.90
2022-10-22T09:43:28.159Z,17.00
2022-10-22T09:46:01.157Z,17.20
2022-10-22T09:48:32.130Z,17.20
2022-10-22T09:51:07.265Z,17.30
2022-10-22T09:53:40.523Z,17.20
2022-10-22T09:56:17.915Z,17.20
2022-10-22T09:58:49.262Z,17.20
2022-10-22T10:01:20.588Z,17.10
2022-10-22T10:03:50.223Z,17.20
2022-10-22T10:06:24.177Z,17.40
2022-10-22T10:08:53.709Z,17.60
2022-10-22T10:11:32.513Z,17.50
2022-10-22T10:14:11.685Z,17.40
2022-10-22T10:16:54.015Z,17.50
2022-10-22T10:19:39.369Z,17.40
2022-10-22T10:22:17.725Z,17.60
2022-10-22T10:25:04.012Z,17.50
2022-10-22T10:27:38.914Z,17.40
2022-10-22T10:30:14.154Z,17.40
2022-10-22T10:33:03.084Z,17.40
2022-10-22T10:35:39.285Z,17.40
2022-10-22T10:38:28.851Z,17.40
2022-10-22T10:41:07.732Z,17.40
2022-10-22T10:43:42.266Z,17.40
2022-10-22T10:46:19.429Z,17.40
2022-10-22T10:48:51.827Z,17.50
2022-10-22T10:51:36.564Z,17.60
2022-10-22T10:54:19.485Z,17.50
2022-10-22T10:56:52.775Z,17.40
2022-10-22T10:59:33.372Z,17.30
2022-10-22T11:02:19.869Z,17.40
2022-10-22T11:05:13.299Z,17.40
2022-10-22T11:07:50.818Z,17.50
2022-10-22T11:10:29.732Z,17.50
2022-10-22T11:13:03.372Z,17.50
2022-10-22T11:15:34.947Z,17.50
2022-10-22T11:18:12.417Z,17.40
2022-10-22T11:20:54.799Z,17.50
2022-10-22T11:23:28.672Z,17.60
2022-10-22T11:25:58.085Z,17.70
2022-10-22T11:28:30.193Z,17.70
2022-10-22T11:31:03.817Z,17.70
2022-10-22T11:33:40.938Z,17.70
2022-10-22T11:36:11.473Z,17.60
2022-10-22T11:38:39.513Z,17.80
2022-10-22T11:41:13.770Z,17.70
2022-10-22T11:43:59.512Z,17.70
2022-10-22T11:46:39.711Z,17.70
2022-10-22T11:49:19.484Z,17.80
2022-10-22T11:51:48.326Z,17.70
2022-10-22T11:54:33.163Z,17.60
2022-10-22T11:57:21.774Z,17.60
2022-10-22T11:59:52.897Z,17.60
2022-10-22T12:02:42.809Z,17.50
2022-10-22T12:05:35.125Z,17.70
2022-10-22T12:08:16.080Z,17.60
2022-10-22T12:10:57.301Z,17.70
2022-10-22T12:13:29.198Z,17.50
2022-10-22T12:15:59.835Z,17.60
2022-10-22T12:18:32.849Z,17.40
2022-10-22T12:21:00.854Z,17.60
2022-10-22T12:23:35.214Z,17.70
2022-10-22T12:26:05.199Z,17.80
2022-10-22T12:28:41.330Z,17.90
2022-10-22T12:31:17.441Z,18.10
2022-10-22T12:33:45.701Z,18.20
2022-10-22T12:36:18.575Z,18.10
2022-10-22T12:38:48.275Z,18.10
2022-10-22T12:41:16.684Z,18.10
2022-10-22T12:43:46.178Z,18.10
2022-10-22T12:46:16.421Z,18.20
2022-10-22T12:48:46.324Z,18.20
2022-10-22T12:51:19.917Z,18.40
2022-10-22T12:53:50.395Z,18.30
2022-10-22T12:56:24.252Z,18.30
2022-10-22T12:58:58.978Z,18.40
2022-10-22T13:01:30.019Z,18.30
2022-10-22T13:04:19.364Z,18.40
2022-10-22T13:06:49.359Z,18.50
2022-10-22T13:09:23.735Z,18.20
2022-10-22T13:11:59.757Z,18.10
2022-10-22T13:14:32.913Z,18.10
2022-10-22T13:17:14.945Z,18.20
2022-10-22T13:19:47.228Z,18.10
2022-10-22T13:22:40.292Z,18.10
2022-10-22T13:25:23.577Z,18.10
2022-10-22T13:27:54.129Z,18.00
2022-10-22T13:30:25.829Z,17.90
2022-10-22T13:32:56.714Z,17.80
2022-10-22T13:35:26.715Z,17.80
2022-10-22T13:37:55.015Z,17.80
2022-10-22T13:40:23.219Z,17.70
2022-10-22T13:42:51.207Z,17.70
2022-10-22T13:45:19.977Z,17.60
2022-10-22T13:47:52.958Z,17.50
2022-10-22T13:50:22.461Z,17.50
2022-10-22T13:52:53.876Z,17.70
2022-10-22T13:55:25.496Z,17.70
2022-10-22T13:57:56.124Z,17.70
2022-10-22T14:00:24.883Z,17.70
2022-10-22T14:02:57.926Z,17.90
2022-10-22T14:05:25.984Z,17.80
2022-10-22T14:07:54.348Z,17.70
2022-10-22T14:10:24.390Z,17.90
2022-10-22T14:12:53.568Z,18.00
2022-10-22T14:15:24.755Z,18.20
2022-10-22T14:17:57.389Z,18.30
2022-10-22T14:20:28.828Z,18.30
2022-10-22T14:22:57.485Z,18.30
2022-10-22T14:25:27.867Z,18.40
2022-10-22T14:27:56.554Z,18.30
2022-10-22T14:30:26.278Z,18.20
2022-10-22T14:32:55.629Z,18.40
2022-10-22T14:35:24.072Z,18.60
2022-10-22T14:37:52.665Z,18.70
2022-10-22T14:40:21.852Z,18.60
2022-10-22T14:42:50.407Z,18.50
2022-10-22T14:45:21.259Z,18.40
2022-10-22T14:47:49.976Z,18.20
2022-10-22T14:50:20.327Z,18.10
2022-10-22T14:52:48.511Z,18.20
2022-10-22T14:55:18.500Z,18.30
2022-10-22T14:57:47.147Z,18.30
2022-10-22T15:00:17.505Z,18.40
2022-10-22T15:02:45.515Z,18.30
2022-10-22T15:05:13.611Z,18.40
2022-10-22T15:07:43.376Z,18.40
2022-10-22T15:10:12.022Z,18.40
2022-10-22T15:12:40.042Z,18.30
2022-10-22T15:15:08.985Z,18.30
2022-10-22T15:17:37.009Z,18.20
2022-10-22T15:20:06.222Z,18.20
2022-10-22T15:22:35.982Z,18.10
2022-10-22T15:25:08.027Z,18.00
2022-10-22T15:27:36.586Z,17.90
2022-10-22T15:30:05.919Z,17.90
2022-10-22T15:32:34.122Z,17.80
2022-10-22T15:35:02.454Z,17.70
2022-10-22T15:37:30.850Z,17.60
2022-10-22T15:40:00.418Z,17.60
2022-10-22T15:42:29.815Z,17.40
2022-10-22T15:44:59.694Z,17.30
2022-10-22T15:47:29.555Z,17.30
2022-10-22T15:49:57.872Z,17.30
2022-10-22T15:52:26.071Z,17.10
2022-10-22T15:54:54.363Z,17.00
2022-10-22T15:57:22.354Z,17.00
2022-10-22T15:59:52.129Z,16.90
2022-10-22T16:02:20.299Z,16.70
2022-10-22T16:04:48.323Z,16.60
2022-10-22T16:07:18.050Z,16.50
2022-10-22T16:09:49.336Z,16.20
2022-10-22T16:12:17.460Z,16.10
2022-10-22T16:14:45.486Z,16.00
2022-10-22T16:17:14.799Z,15.80
2022-10-22T16:19:43.018Z,15.60
2022-10-22T16:22:13.714Z,15.50
2022-10-22T16:24:41.761Z,15.30
2022-10-22T16:27:10.903Z,15.20
2022-10-22T16:29:39.803Z,15.20
2022-10-22T16:32:08.098Z,15.00
2022-10-22T16:34:37.461Z,14.90
2022-10-22T16:37:09.956Z,14.80
2022-10-22T16:39:38.412Z,14.60
2022-10-22T16:42:06.547Z,14.60
2022-10-22T16:44:34.645Z,14.40
2022-10-22T16:47:02.993Z,14.20
2022-10-22T16:49:31.164Z,14.10
2022-10-22T16:52:00.519Z,14.00
2022-10-22T16:54:28.637Z,14.00
2022-10-22T16:56:56.633Z,14.10
2022-10-22T16:59:24.851Z,14.00
2022-10-22T17:01:54.482Z,13.90
2022-10-22T17:04:23.555Z,13.90
2022-10-22T17:06:51.519Z,13.90
2022-10-22T17:09:21.156Z,14.00
2022-10-22T17:11:49.334Z,14.00
2022-10-22T17:14:17.296Z,13.80
2022-10-22T17:16:48.758Z,13.80
2022-10-22T17:19:17.014Z,13.80
2022-10-22T17:21:45.083Z,13.90
2022-10-22T17:24:13.150Z,13.80
2022-10-22T17:26:43.197Z,13.90
2022-10-22T17:29:11.848Z,13.90
2022-10-22T17:31:41.231Z,13.90
2022-10-22T17:34:11.771Z,13.90
2022-10-22T17:36:39.989Z,14.00
2022-10-22T17:39:09.658Z,14.10
2022-10-22T17:41:38.944Z,14.20
2022-10-22T17:44:13.671Z,14.20
2022-10-22T17:46:43.752Z,14.30
2022-10-22T17:49:16.621Z,14.30
2022-10-22T17:51:44.773Z,14.20
2022-10-22T17:54:14.075Z,14.20
2022-10-22T17:56:42.218Z,14.10
2022-10-22T17:59:15.101Z,14.00
2022-10-22T18:01:45.592Z,14.00
2022-10-22T18:04:16.303Z,14.10
2022-10-22T18:06:46.076Z,14.10
2022-10-22T18:09:18.423Z,14.20
2022-10-22T18:11:47.760Z,14.20
2022-10-22T18:14:18.560Z,14.20
2022-10-22T18:16:47.437Z,14.20
2022-10-22T18:19:18.157Z,14.40
2022-10-22T18:21:46.216Z,14.30
2022-10-22T18:24:15.346Z,14.30
2022-10-22T18:26:43.626Z,14.30
2022-10-22T18:29:14.834Z,14.10
2022-10-22T18:31:44.167Z,14.20
2022-10-22T18:34:12.907Z,14.40
2022-10-22T18:36:42.423Z,14.50
2022-10-22T18:39:15.725Z,14.50
2022-10-22T18:41:44.272Z,14.50
2022-10-22T18:44:14.331Z,14.50
2022-10-22T18:46:43.771Z,14.40
2022-10-22T18:49:18.369Z,14.40
2022-10-22T18:51:48.510Z,14.30
2022-10-22T18:54:23.260Z,14.30
2022-10-22T18:56:52.438Z,14.30
2022-10-22T18:59:22.609Z,14.20
2022-10-22T19:01:53.402Z,14.10
2022-10-22T19:04:21.573Z,14.00
2022-10-22T19:06:49.686Z,13.90
2022-10-22T19:09:18.633Z,13.80
2022-10-22T19:11:46.882Z,13.80
2022-10-22T19:14:19.199Z,13.70
2022-10-22T19:16:47.941Z,13.60
2022-10-22T19:19:19.727Z,13.40
2022-10-22T19:21:48.387Z,13.40
2022-10-22T19:24:17.764Z,13.40
2022-10-22T19:26:46.249Z,13.30
2022-10-22T19:29:16.249Z,13.30
2022-10-22T19:31:44.825Z,13.20
2022-10-22T19:34:12.860Z,13.10
2022-10-22T19:36:42.233Z,13.00
2022-10-22T19:39:10.262Z,12.90
2022-10-22T19:41:38.271Z,12.80
2022-10-22T19:44:06.265Z,12.80
2022-10-22T19:46:34.460Z,12.70
2022-10-22T19:49:03.841Z,12.70
2022-10-22T19:51:33.747Z,12.60
2022-10-22T19:54:05.381Z,12.60
2022-10-22T19:56:35.014Z,12.60
2022-10-22T19:59:03.802Z,12.60
2022-10-22T20:01:32.711Z,12.60
2022-10-22T20:04:01.442Z,12.60
2022-10-22T20:06:29.706Z,12.60
2022-10-22T20:08:58.125Z,12.80
2022-10-22T20:11:30.277Z,12.80
2022-10-22T20:13:58.727Z,12.90
2022-10-22T20:16:30.017Z,12.90
2022-10-22T20:19:02.051Z,13.00
2022-10-22T20:21:30.430Z,13.10
2022-10-22T20:23:58.805Z,13.20
2022-10-22T20:26:29.146Z,13.30
2022-10-22T20:28:57.928Z,13.50
2022-10-22T20:31:27.814Z,13.50
2022-10-22T20:33:57.399Z,13.60
2022-10-22T20:36:26.335Z,13.50
2022-10-22T20:38:58.858Z,13.40
2022-10-22T20:41:28.587Z,13.30
2022-10-22T20:43:57.010Z,13.20
2022-10-22T20:46:27.888Z,13.20
2022-10-22T20:49:00.163Z,13.10
2022-10-22T20:51:28.282Z,13.00
2022-10-22T20:53:56.367Z,13.00
2022-10-22T20:56:24.980Z,13.00
2022-10-22T20:59:04.109Z,12.90
2022-10-22T21:01:34.022Z,12.90
2022-10-22T21:04:02.200Z,12.80
2022-10-22T21:06:30.778Z,12.80
2022-10-22T21:08:58.929Z,13.00
2022-10-22T21:11:27.164Z,13.20
2022-10-22T21:13:56.586Z,13.30
2022-10-22T21:16:24.727Z,13.30
2022-10-22T21:18:52.940Z,13.30
2022-10-22T21:21:21.093Z,13.40
2022-10-22T21:23:50.219Z,13.40
2022-10-22T21:26:18.908Z,13.40
2022-10-22T21:28:47.083Z,13.50
2022-10-22T21:31:21.883Z,13.50
2022-10-22T21:33:51.183Z,13.50
2022-10-22T21:36:22.682Z,13.40
2022-10-22T21:38:52.899Z,13.40
2022-10-22T21:41:23.035Z,13.30
2022-10-22T21:43:51.623Z,13.30
2022-10-22T21:46:22.721Z,13.30
2022-10-22T21:48:54.662Z,13.30
2022-10-22T21:51:25.386Z,13.20
2022-10-22T21:53:55.152Z,13.20
2022-10-22T21:56:26.123Z,13.10
2022-10-22T21:58:54.663Z,13.10
2022-10-22T22:01:24.830Z,13.10
2022-10-22T22:03:53.413Z,13.00
2022-10-22T22:06:23.786Z,13.10
2022-10-22T22:08:54.066Z,13.10
2022-10-22T22:11:24.572Z,13.10
2022-10-22T22:13:53.071Z,13.00
2022-10-22T22:16:27.251Z,13.00
2022-10-22T22:18:57.080Z,13.00
2022-10-22T22:21:25.503Z,12.90
2022-10-22T22:23:53.705Z,12.90
2022-10-22T22:26:26.736Z,12.80
2022-10-22T22:28:57.819Z,12.80
2022-10-22T22:31:29.015Z,12.90
2022-10-22T22:34:00.940Z,13.00
2022-10-22T22:36:29.881Z,13.00
2022-10-22T22:38:58.111Z,13.00
2022-10-22T22:41:26.226Z,13.10
2022-10-22T22:46:23.317Z,13.10
2022-10-22T22:48:53.008Z,13.10
2022-10-22T22:51:21.266Z,13.10
2022-10-22T22:53:49.248Z,13.10
2022-10-22T22:56:19.076Z,13.10
2022-10-22T22:58:47.180Z,13.00
2022-10-22T23:01:18.129Z,13.00
2022-10-22T23:03:47.829Z,12.90
2022-10-22T23:06:17.283Z,12.90
2022-10-22T23:08:45.686Z,12.80
2022-10-22T23:11:15.009Z,12.70
2022-10-22T23:13:43.669Z,12.70
2022-10-22T23:16:15.548Z,12.60
2022-10-22T23:18:43.862Z,12.60
2022-10-22T23:21:15.587Z,12.50
2022-10-22T23:23:47.059Z,12.50
2022-10-22T23:26:16.903Z,12.50
2022-10-22T23:28:44.949Z,12.50
2022-10-22T23:31:14.875Z,12.50
2022-10-22T23:33:43.222Z,12.50
2022-10-22T23:36:12.265Z,12.40
2022-10-22T23:38:41.466Z,12.40
2022-10-22T23:41:11.115Z,12.50
2022-10-22T23:43:39.693Z,12.50
2022-10-22T23:46:09.597Z,12.60
2022-10-22T23:48:39.056Z,12.60
2022-10-22T23:51:08.842Z,12.50
2022-10-22T23:53:37.005Z,12.50
2022-10-22T23:56:06.575Z,12.40
2022-10-22T23:58:36.256Z,12.40
